sensor_id;sensor_type;location;lat;lon;timestamp;P1;durP1;ratioP1;P2;durP2;ratioP2
42194;SDS011;27863;49.440;11.102;2023-09-12T00:00:06;13.63;;;12.30;;
42194;SDS011;27863;49.440;11.102;2023-09-12T00:03:13;17.63;;;12.65;;
42194;SDS011;27863;49.440;11.102;2023-09-12T00:06:15;13.57;;;12.57;;
42194;SDS011;27863;49.440;11.102;2023-09-12T00:09:23;13.70;;;12.32;;
42194;SDS011;27863;49.440;11.102;2023-09-12T00:12:24;13.07;;;11.98;;
42194;SDS011;27863;49.440;11.102;2023-09-12T00:15:27;14.43;;;13.05;;
42194;SDS011;27863;49.440;11.102;2023-09-12T00:18:28;14.00;;;12.80;;
42194;SDS011;27863;49.440;11.102;2023-09-12T00:21:28;13.20;;;12.20;;
42194;SDS011;27863;49.440;11.102;2023-09-12T00:24:29;12.05;;;11.05;;
42194;SDS011;27863;49.440;11.102;2023-09-12T00:27:30;12.27;;;10.88;;
42194;SDS011;27863;49.440;11.102;2023-09-12T00:30:30;13.98;;;12.63;;
42194;SDS011;27863;49.440;11.102;2023-09-12T00:33:31;12.93;;;12.02;;
42194;SDS011;27863;49.440;11.102;2023-09-12T00:36:32;13.40;;;12.23;;
42194;SDS011;27863;49.440;11.102;2023-09-12T00:39:33;13.65;;;12.50;;
42194;SDS011;27863;49.440;11.102;2023-09-12T00:42:36;14.43;;;12.90;;
42194;SDS011;27863;49.440;11.102;2023-09-12T00:45:36;13.13;;;12.07;;
42194;SDS011;27863;49.440;11.102;2023-09-12T00:48:37;14.38;;;13.10;;
42194;SDS011;27863;49.440;11.102;2023-09-12T00:51:38;14.43;;;12.68;;
42194;SDS011;27863;49.440;11.102;2023-09-12T00:54:39;12.43;;;11.45;;
42194;SDS011;27863;49.440;11.102;2023-09-12T00:57:40;13.30;;;12.20;;
42194;SDS011;27863;49.440;11.102;2023-09-12T01:00:41;14.18;;;11.77;;
42194;SDS011;27863;49.440;11.102;2023-09-12T01:03:42;13.25;;;12.15;;
42194;SDS011;27863;49.440;11.102;2023-09-12T01:06:42;15.18;;;12.55;;
42194;SDS011;27863;49.440;11.102;2023-09-12T01:09:45;13.50;;;12.55;;
42194;SDS011;27863;49.440;11.102;2023-09-12T01:12:45;12.88;;;11.88;;
42194;SDS011;27863;49.440;11.102;2023-09-12T01:15:46;13.00;;;11.88;;
42194;SDS011;27863;49.440;11.102;2023-09-12T01:18:47;16.45;;;12.40;;
42194;SDS011;27863;49.440;11.102;2023-09-12T01:25:10;16.10;;;13.20;;
42194;SDS011;27863;49.440;11.102;2023-09-12T01:28:34;13.38;;;12.30;;
42194;SDS011;27863;49.440;11.102;2023-09-12T01:31:37;13.00;;;11.95;;
42194;SDS011;27863;49.440;11.102;2023-09-12T01:34:41;12.55;;;11.32;;
42194;SDS011;27863;49.440;11.102;2023-09-12T01:37:42;13.48;;;12.25;;
42194;SDS011;27863;49.440;11.102;2023-09-12T01:40:51;13.13;;;11.75;;
42194;SDS011;27863;49.440;11.102;2023-09-12T01:43:54;13.48;;;12.23;;
42194;SDS011;27863;49.440;11.102;2023-09-12T01:46:56;13.70;;;12.50;;
42194;SDS011;27863;49.440;11.102;2023-09-12T01:49:58;12.68;;;11.77;;
42194;SDS011;27863;49.440;11.102;2023-09-12T01:52:59;13.02;;;12.02;;
42194;SDS011;27863;49.440;11.102;2023-09-12T01:56:00;13.02;;;11.80;;
42194;SDS011;27863;49.440;11.102;2023-09-12T01:59:00;13.30;;;12.40;;
42194;SDS011;27863;49.440;11.102;2023-09-12T02:02:02;13.15;;;12.10;;
42194;SDS011;27863;49.440;11.102;2023-09-12T02:05:16;13.77;;;12.65;;
42194;SDS011;27863;49.440;11.102;2023-09-12T02:08:19;13.82;;;12.77;;
42194;SDS011;27863;49.440;11.102;2023-09-12T02:11:23;16.23;;;12.32;;
42194;SDS011;27863;49.440;11.102;2023-09-12T02:14:23;13.55;;;12.45;;
42194;SDS011;27863;49.440;11.102;2023-09-12T02:17:26;14.02;;;12.60;;
42194;SDS011;27863;49.440;11.102;2023-09-12T02:20:27;16.10;;;12.75;;
42194;SDS011;27863;49.440;11.102;2023-09-12T02:23:28;13.18;;;12.10;;
42194;SDS011;27863;49.440;11.102;2023-09-12T02:26:28;14.18;;;12.98;;
42194;SDS011;27863;49.440;11.102;2023-09-12T02:29:29;13.60;;;12.52;;
42194;SDS011;27863;49.440;11.102;2023-09-12T02:32:29;13.07;;;12.18;;
42194;SDS011;27863;49.440;11.102;2023-09-12T02:35:31;13.30;;;12.20;;
42194;SDS011;27863;49.440;11.102;2023-09-12T02:38:32;13.27;;;12.07;;
42194;SDS011;27863;49.440;11.102;2023-09-12T02:41:33;14.75;;;13.57;;
42194;SDS011;27863;49.440;11.102;2023-09-12T02:44:34;14.40;;;12.98;;
42194;SDS011;27863;49.440;11.102;2023-09-12T02:47:36;16.38;;;14.10;;
42194;SDS011;27863;49.440;11.102;2023-09-12T02:50:36;16.00;;;14.80;;
42194;SDS011;27863;49.440;11.102;2023-09-12T02:53:37;15.68;;;14.38;;
42194;SDS011;27863;49.440;11.102;2023-09-12T02:56:39;14.40;;;12.90;;
42194;SDS011;27863;49.440;11.102;2023-09-12T02:59:39;15.52;;;13.93;;
42194;SDS011;27863;49.440;11.102;2023-09-12T03:02:40;13.48;;;12.30;;
42194;SDS011;27863;49.440;11.102;2023-09-12T03:05:41;13.73;;;12.57;;
42194;SDS011;27863;49.440;11.102;2023-09-12T03:08:42;13.45;;;12.20;;
42194;SDS011;27863;49.440;11.102;2023-09-12T03:11:43;13.40;;;12.38;;
42194;SDS011;27863;49.440;11.102;2023-09-12T03:14:45;13.32;;;12.25;;
42194;SDS011;27863;49.440;11.102;2023-09-12T03:17:46;14.65;;;13.38;;
42194;SDS011;27863;49.440;11.102;2023-09-12T03:20:47;13.38;;;12.40;;
42194;SDS011;27863;49.440;11.102;2023-09-12T03:23:48;14.75;;;13.23;;
42194;SDS011;27863;49.440;11.102;2023-09-12T03:26:49;13.85;;;12.65;;
42194;SDS011;27863;49.440;11.102;2023-09-12T03:29:50;13.25;;;12.05;;
42194;SDS011;27863;49.440;11.102;2023-09-12T03:32:50;12.40;;;11.38;;
42194;SDS011;27863;49.440;11.102;2023-09-12T03:35:51;13.07;;;11.90;;
42194;SDS011;27863;49.440;11.102;2023-09-12T03:38:51;14.43;;;13.13;;
42194;SDS011;27863;49.440;11.102;2023-09-12T03:41:52;13.85;;;12.70;;
42194;SDS011;27863;49.440;11.102;2023-09-12T03:44:53;13.70;;;12.55;;
42194;SDS011;27863;49.440;11.102;2023-09-12T03:47:53;13.35;;;12.23;;
42194;SDS011;27863;49.440;11.102;2023-09-12T03:50:56;12.88;;;11.77;;
42194;SDS011;27863;49.440;11.102;2023-09-12T03:53:57;12.38;;;11.38;;
42194;SDS011;27863;49.440;11.102;2023-09-12T03:56:59;13.45;;;12.40;;
42194;SDS011;27863;49.440;11.102;2023-09-12T04:00:00;13.38;;;11.40;;
42194;SDS011;27863;49.440;11.102;2023-09-12T04:03:13;13.18;;;11.85;;
42194;SDS011;27863;49.440;11.102;2023-09-12T04:06:17;11.93;;;11.13;;
42194;SDS011;27863;49.440;11.102;2023-09-12T04:09:18;13.77;;;12.43;;
42194;SDS011;27863;49.440;11.102;2023-09-12T04:12:19;13.32;;;11.80;;
42194;SDS011;27863;49.440;11.102;2023-09-12T04:15:19;12.73;;;11.63;;
42194;SDS011;27863;49.440;11.102;2023-09-12T04:18:21;13.95;;;12.48;;
42194;SDS011;27863;49.440;11.102;2023-09-12T04:21:23;13.40;;;12.40;;
42194;SDS011;27863;49.440;11.102;2023-09-12T04:24:24;12.98;;;11.90;;
42194;SDS011;27863;49.440;11.102;2023-09-12T04:27:25;13.48;;;12.35;;
42194;SDS011;27863;49.440;11.102;2023-09-12T04:30:26;12.43;;;11.35;;
42194;SDS011;27863;49.440;11.102;2023-09-12T04:33:27;13.23;;;12.13;;
42194;SDS011;27863;49.440;11.102;2023-09-12T04:36:31;14.80;;;13.30;;
42194;SDS011;27863;49.440;11.102;2023-09-12T04:39:33;13.48;;;12.20;;
42194;SDS011;27863;49.440;11.102;2023-09-12T04:42:35;12.65;;;11.73;;
42194;SDS011;27863;49.440;11.102;2023-09-12T04:45:37;12.32;;;11.35;;
42194;SDS011;27863;49.440;11.102;2023-09-12T04:48:38;20.08;;;11.90;;
42194;SDS011;27863;49.440;11.102;2023-09-12T04:51:39;12.93;;;11.75;;
42194;SDS011;27863;49.440;11.102;2023-09-12T04:54:40;14.70;;;11.73;;
42194;SDS011;27863;49.440;11.102;2023-09-12T04:57:41;15.90;;;13.05;;
42194;SDS011;27863;49.440;11.102;2023-09-12T05:00:42;13.68;;;12.60;;
42194;SDS011;27863;49.440;11.102;2023-09-12T05:03:43;11.82;;;10.88;;
42194;SDS011;27863;49.440;11.102;2023-09-12T05:06:45;14.35;;;12.32;;
42194;SDS011;27863;49.440;11.102;2023-09-12T05:09:47;13.38;;;11.13;;
42194;SDS011;27863;49.440;11.102;2023-09-12T05:12:47;12.07;;;11.07;;
42194;SDS011;27863;49.440;11.102;2023-09-12T05:15:48;13.52;;;11.70;;
42194;SDS011;27863;49.440;11.102;2023-09-12T05:18:49;12.90;;;11.80;;
42194;SDS011;27863;49.440;11.102;2023-09-12T05:21:49;14.50;;;12.23;;
42194;SDS011;27863;49.440;11.102;2023-09-12T05:24:51;13.40;;;12.30;;
42194;SDS011;27863;49.440;11.102;2023-09-12T05:27:54;14.50;;;12.60;;
42194;SDS011;27863;49.440;11.102;2023-09-12T05:30:56;15.73;;;12.10;;
42194;SDS011;27863;49.440;11.102;2023-09-12T05:33:57;13.43;;;12.13;;
42194;SDS011;27863;49.440;11.102;2023-09-12T05:36:59;13.02;;;11.77;;
42194;SDS011;27863;49.440;11.102;2023-09-12T05:40:00;17.35;;;14.02;;
42194;SDS011;27863;49.440;11.102;2023-09-12T05:43:04;21.92;;;12.85;;
42194;SDS011;27863;49.440;11.102;2023-09-12T05:46:04;17.55;;;12.50;;
42194;SDS011;27863;49.440;11.102;2023-09-12T05:49:05;18.77;;;13.10;;
42194;SDS011;27863;49.440;11.102;2023-09-12T05:52:06;12.65;;;11.50;;
42194;SDS011;27863;49.440;11.102;2023-09-12T05:55:07;14.63;;;11.85;;
42194;SDS011;27863;49.440;11.102;2023-09-12T05:58:08;12.05;;;11.05;;
42194;SDS011;27863;49.440;11.102;2023-09-12T06:01:10;13.63;;;12.40;;
42194;SDS011;27863;49.440;11.102;2023-09-12T06:04:12;12.75;;;11.55;;
42194;SDS011;27863;49.440;11.102;2023-09-12T06:07:13;13.07;;;11.18;;
42194;SDS011;27863;49.440;11.102;2023-09-12T06:10:16;13.02;;;11.70;;
42194;SDS011;27863;49.440;11.102;2023-09-12T06:13:16;13.70;;;11.93;;
42194;SDS011;27863;49.440;11.102;2023-09-12T06:16:17;20.30;;;12.50;;
42194;SDS011;27863;49.440;11.102;2023-09-12T06:19:17;13.32;;;11.57;;
42194;SDS011;27863;49.440;11.102;2023-09-12T06:22:19;15.02;;;11.52;;
42194;SDS011;27863;49.440;11.102;2023-09-12T06:25:25;14.43;;;11.57;;
42194;SDS011;27863;49.440;11.102;2023-09-12T06:28:30;12.88;;;11.48;;
42194;SDS011;27863;49.440;11.102;2023-09-12T06:31:32;12.52;;;11.43;;
42194;SDS011;27863;49.440;11.102;2023-09-12T06:34:32;14.32;;;13.05;;
42194;SDS011;27863;49.440;11.102;2023-09-12T06:37:37;12.65;;;11.55;;
42194;SDS011;27863;49.440;11.102;2023-09-12T06:40:42;12.57;;;11.30;;
42194;SDS011;27863;49.440;11.102;2023-09-12T06:43:43;11.80;;;10.80;;
42194;SDS011;27863;49.440;11.102;2023-09-12T06:46:44;26.85;;;10.98;;
42194;SDS011;27863;49.440;11.102;2023-09-12T06:49:46;11.50;;;10.50;;
42194;SDS011;27863;49.440;11.102;2023-09-12T06:52:50;11.88;;;10.77;;
42194;SDS011;27863;49.440;11.102;2023-09-12T06:55:50;13.23;;;11.70;;
42194;SDS011;27863;49.440;11.102;2023-09-12T06:58:51;12.50;;;11.18;;
42194;SDS011;27863;49.440;11.102;2023-09-12T07:01:56;11.13;;;10.23;;
42194;SDS011;27863;49.440;11.102;2023-09-12T07:04:57;17.15;;;10.85;;
42194;SDS011;27863;49.440;11.102;2023-09-12T07:07:57;15.75;;;10.55;;
42194;SDS011;27863;49.440;11.102;2023-09-12T07:11:01;14.48;;;10.27;;
42194;SDS011;27863;49.440;11.102;2023-09-12T07:14:05;15.98;;;11.20;;
42194;SDS011;27863;49.440;11.102;2023-09-12T07:17:06;11.48;;;10.38;;
42194;SDS011;27863;49.440;11.102;2023-09-12T07:20:07;16.33;;;11.23;;
42194;SDS011;27863;49.440;11.102;2023-09-12T07:23:11;11.75;;;10.68;;
42194;SDS011;27863;49.440;11.102;2023-09-12T07:26:12;13.00;;;11.68;;
42194;SDS011;27863;49.440;11.102;2023-09-12T07:29:16;10.55;;;9.75;;
42194;SDS011;27863;49.440;11.102;2023-09-12T07:32:16;12.57;;;10.00;;
42194;SDS011;27863;49.440;11.102;2023-09-12T07:35:17;9.90;;;8.90;;
42194;SDS011;27863;49.440;11.102;2023-09-12T07:38:18;10.77;;;9.80;;
42194;SDS011;27863;49.440;11.102;2023-09-12T07:41:19;13.02;;;10.00;;
42194;SDS011;27863;49.440;11.102;2023-09-12T07:44:20;10.18;;;9.23;;
42194;SDS011;27863;49.440;11.102;2023-09-12T07:47:21;11.35;;;10.23;;
42194;SDS011;27863;49.440;11.102;2023-09-12T07:50:22;9.27;;;8.10;;
42194;SDS011;27863;49.440;11.102;2023-09-12T07:53:23;9.15;;;8.35;;
42194;SDS011;27863;49.440;11.102;2023-09-12T07:56:24;9.80;;;8.90;;
42194;SDS011;27863;49.440;11.102;2023-09-12T07:59:24;10.13;;;8.95;;
42194;SDS011;27863;49.440;11.102;2023-09-12T08:02:31;10.20;;;9.23;;
42194;SDS011;27863;49.440;11.102;2023-09-12T08:05:31;11.00;;;9.60;;
42194;SDS011;27863;49.440;11.102;2023-09-12T08:08:31;10.45;;;9.63;;
42194;SDS011;27863;49.440;11.102;2023-09-12T08:11:32;10.07;;;9.30;;
42194;SDS011;27863;49.440;11.102;2023-09-12T08:14:33;10.10;;;9.23;;
42194;SDS011;27863;49.440;11.102;2023-09-12T08:17:33;10.55;;;9.30;;
42194;SDS011;27863;49.440;11.102;2023-09-12T08:20:34;9.52;;;8.77;;
42194;SDS011;27863;49.440;11.102;2023-09-12T08:23:34;9.30;;;8.63;;
42194;SDS011;27863;49.440;11.102;2023-09-12T08:26:36;9.05;;;8.38;;
42194;SDS011;27863;49.440;11.102;2023-09-12T08:29:37;11.05;;;7.90;;
42194;SDS011;27863;49.440;11.102;2023-09-12T08:32:38;9.95;;;9.07;;
42194;SDS011;27863;49.440;11.102;2023-09-12T08:35:43;9.43;;;8.40;;
42194;SDS011;27863;49.440;11.102;2023-09-12T08:38:44;15.80;;;8.18;;
42194;SDS011;27863;49.440;11.102;2023-09-12T08:41:47;8.75;;;7.90;;
42194;SDS011;27863;49.440;11.102;2023-09-12T08:44:47;9.30;;;8.52;;
42194;SDS011;27863;49.440;11.102;2023-09-12T08:47:50;12.13;;;11.27;;
42194;SDS011;27863;49.440;11.102;2023-09-12T08:50:52;11.20;;;7.93;;
42194;SDS011;27863;49.440;11.102;2023-09-12T08:53:53;8.00;;;7.30;;
42194;SDS011;27863;49.440;11.102;2023-09-12T08:56:57;8.45;;;7.72;;
42194;SDS011;27863;49.440;11.102;2023-09-12T09:00:22;9.10;;;7.32;;
42194;SDS011;27863;49.440;11.102;2023-09-12T09:03:23;12.32;;;7.90;;
42194;SDS011;27863;49.440;11.102;2023-09-12T09:06:24;11.95;;;7.85;;
42194;SDS011;27863;49.440;11.102;2023-09-12T09:09:25;9.90;;;9.00;;
42194;SDS011;27863;49.440;11.102;2023-09-12T09:12:27;8.40;;;7.70;;
42194;SDS011;27863;49.440;11.102;2023-09-12T09:15:29;8.50;;;7.85;;
42194;SDS011;27863;49.440;11.102;2023-09-12T09:18:30;9.32;;;8.38;;
42194;SDS011;27863;49.440;11.102;2023-09-12T09:21:53;8.50;;;7.72;;
42194;SDS011;27863;49.440;11.102;2023-09-12T09:25:11;9.18;;;8.38;;
42194;SDS011;27863;49.440;11.102;2023-09-12T09:28:19;9.40;;;8.70;;
42194;SDS011;27863;49.440;11.102;2023-09-12T09:31:21;11.57;;;9.25;;
42194;SDS011;27863;49.440;11.102;2023-09-12T09:34:22;10.18;;;9.30;;
42194;SDS011;27863;49.440;11.102;2023-09-12T09:37:24;9.25;;;8.45;;
42194;SDS011;27863;49.440;11.102;2023-09-12T09:40:25;9.25;;;8.45;;
42194;SDS011;27863;49.440;11.102;2023-09-12T09:43:26;14.43;;;8.50;;
42194;SDS011;27863;49.440;11.102;2023-09-12T09:46:27;14.55;;;12.60;;
42194;SDS011;27863;49.440;11.102;2023-09-12T09:49:27;9.77;;;8.88;;
42194;SDS011;27863;49.440;11.102;2023-09-12T09:52:31;9.10;;;8.40;;
42194;SDS011;27863;49.440;11.102;2023-09-12T09:55:31;8.95;;;7.80;;
42194;SDS011;27863;49.440;11.102;2023-09-12T09:58:32;8.68;;;7.88;;
42194;SDS011;27863;49.440;11.102;2023-09-12T10:01:32;9.10;;;8.30;;
42194;SDS011;27863;49.440;11.102;2023-09-12T10:04:33;9.07;;;8.32;;
42194;SDS011;27863;49.440;11.102;2023-09-12T10:07:36;9.82;;;8.77;;
42194;SDS011;27863;49.440;11.102;2023-09-12T10:10:38;11.60;;;8.98;;
42194;SDS011;27863;49.440;11.102;2023-09-12T10:13:38;12.43;;;8.73;;
42194;SDS011;27863;49.440;11.102;2023-09-12T10:16:45;9.80;;;8.85;;
42194;SDS011;27863;49.440;11.102;2023-09-12T10:19:55;9.65;;;8.55;;
42194;SDS011;27863;49.440;11.102;2023-09-12T10:23:09;10.23;;;8.55;;
42194;SDS011;27863;49.440;11.102;2023-09-12T10:26:17;12.38;;;9.20;;
42194;SDS011;27863;49.440;11.102;2023-09-12T10:29:17;8.93;;;8.25;;
42194;SDS011;27863;49.440;11.102;2023-09-12T10:32:18;8.63;;;8.02;;
42194;SDS011;27863;49.440;11.102;2023-09-12T10:35:20;9.70;;;8.80;;
42194;SDS011;27863;49.440;11.102;2023-09-12T10:38:21;9.05;;;8.32;;
42194;SDS011;27863;49.440;11.102;2023-09-12T10:41:26;9.50;;;8.27;;
42194;SDS011;27863;49.440;11.102;2023-09-12T10:44:27;9.40;;;8.05;;
42194;SDS011;27863;49.440;11.102;2023-09-12T10:47:29;11.05;;;8.60;;
42194;SDS011;27863;49.440;11.102;2023-09-12T10:50:33;10.02;;;9.10;;
42194;SDS011;27863;49.440;11.102;2023-09-12T10:53:37;8.93;;;8.07;;
42194;SDS011;27863;49.440;11.102;2023-09-12T10:56:37;9.48;;;8.68;;
42194;SDS011;27863;49.440;11.102;2023-09-12T10:59:50;13.75;;;9.02;;
42194;SDS011;27863;49.440;11.102;2023-09-12T11:06:29;11.20;;;8.35;;
42194;SDS011;27863;49.440;11.102;2023-09-12T11:09:31;9.60;;;8.90;;
42194;SDS011;27863;49.440;11.102;2023-09-12T11:12:36;9.43;;;8.63;;
42194;SDS011;27863;49.440;11.102;2023-09-12T11:15:37;10.25;;;9.45;;
42194;SDS011;27863;49.440;11.102;2023-09-12T11:19:20;9.15;;;8.40;;
42194;SDS011;27863;49.440;11.102;2023-09-12T11:22:27;9.50;;;8.80;;
42194;SDS011;27863;49.440;11.102;2023-09-12T11:25:28;9.35;;;8.50;;
42194;SDS011;27863;49.440;11.102;2023-09-12T11:28:31;9.23;;;7.97;;
42194;SDS011;27863;49.440;11.102;2023-09-12T11:31:32;8.82;;;8.02;;
42194;SDS011;27863;49.440;11.102;2023-09-12T11:34:41;9.75;;;8.85;;
42194;SDS011;27863;49.440;11.102;2023-09-12T11:37:49;10.23;;;9.35;;
42194;SDS011;27863;49.440;11.102;2023-09-12T11:40:50;9.35;;;8.43;;
42194;SDS011;27863;49.440;11.102;2023-09-12T11:43:50;8.75;;;7.95;;
42194;SDS011;27863;49.440;11.102;2023-09-12T11:46:52;8.55;;;7.78;;
42194;SDS011;27863;49.440;11.102;2023-09-12T11:49:53;9.02;;;8.25;;
42194;SDS011;27863;49.440;11.102;2023-09-12T11:53:00;8.38;;;7.57;;
42194;SDS011;27863;49.440;11.102;2023-09-12T11:56:01;9.32;;;8.00;;
42194;SDS011;27863;49.440;11.102;2023-09-12T11:59:02;10.55;;;8.02;;
42194;SDS011;27863;49.440;11.102;2023-09-12T12:02:05;8.98;;;8.18;;
42194;SDS011;27863;49.440;11.102;2023-09-12T12:05:07;10.15;;;8.13;;
42194;SDS011;27863;49.440;11.102;2023-09-12T12:08:08;9.32;;;8.52;;
42194;SDS011;27863;49.440;11.102;2023-09-12T12:11:09;12.50;;;8.10;;
42194;SDS011;27863;49.440;11.102;2023-09-12T12:14:13;8.75;;;7.93;;
42194;SDS011;27863;49.440;11.102;2023-09-12T12:17:15;8.40;;;7.80;;
42194;SDS011;27863;49.440;11.102;2023-09-12T12:20:17;12.95;;;8.38;;
42194;SDS011;27863;49.440;11.102;2023-09-12T12:23:17;9.18;;;8.27;;
42194;SDS011;27863;49.440;11.102;2023-09-12T12:26:18;9.23;;;8.18;;
42194;SDS011;27863;49.440;11.102;2023-09-12T12:29:19;16.15;;;12.43;;
42194;SDS011;27863;49.440;11.102;2023-09-12T12:32:22;7.40;;;6.80;;
42194;SDS011;27863;49.440;11.102;2023-09-12T12:35:23;8.85;;;8.05;;
42194;SDS011;27863;49.440;11.102;2023-09-12T12:38:24;10.88;;;8.52;;
42194;SDS011;27863;49.440;11.102;2023-09-12T12:41:28;10.10;;;8.95;;
42194;SDS011;27863;49.440;11.102;2023-09-12T12:44:33;7.82;;;7.13;;
42194;SDS011;27863;49.440;11.102;2023-09-12T12:47:35;7.50;;;6.43;;
42194;SDS011;27863;49.440;11.102;2023-09-12T12:50:36;6.50;;;6.00;;
42194;SDS011;27863;49.440;11.102;2023-09-12T12:53:37;7.65;;;7.05;;
42194;SDS011;27863;49.440;11.102;2023-09-12T12:56:43;7.38;;;6.78;;
42194;SDS011;27863;49.440;11.102;2023-09-12T12:59:45;7.75;;;7.13;;
42194;SDS011;27863;49.440;11.102;2023-09-12T13:02:48;8.57;;;7.13;;
42194;SDS011;27863;49.440;11.102;2023-09-12T13:05:48;8.35;;;7.55;;
42194;SDS011;27863;49.440;11.102;2023-09-12T13:08:49;9.38;;;6.80;;
42194;SDS011;27863;49.440;11.102;2023-09-12T13:11:50;8.55;;;7.18;;
42194;SDS011;27863;49.440;11.102;2023-09-12T13:14:50;7.57;;;6.97;;
42194;SDS011;27863;49.440;11.102;2023-09-12T13:17:51;8.07;;;7.28;;
42194;SDS011;27863;49.440;11.102;2023-09-12T13:20:51;7.30;;;6.72;;
42194;SDS011;27863;49.440;11.102;2023-09-12T13:23:55;9.70;;;7.72;;
42194;SDS011;27863;49.440;11.102;2023-09-12T13:26:55;7.10;;;6.50;;
42194;SDS011;27863;49.440;11.102;2023-09-12T13:29:56;8.18;;;7.57;;
42194;SDS011;27863;49.440;11.102;2023-09-12T13:32:56;7.50;;;6.88;;
42194;SDS011;27863;49.440;11.102;2023-09-12T13:35:56;7.45;;;6.78;;
42194;SDS011;27863;49.440;11.102;2023-09-12T13:38:57;8.93;;;8.13;;
42194;SDS011;27863;49.440;11.102;2023-09-12T13:41:58;7.68;;;6.97;;
42194;SDS011;27863;49.440;11.102;2023-09-12T13:45:03;7.97;;;6.72;;
42194;SDS011;27863;49.440;11.102;2023-09-12T13:48:06;7.70;;;6.70;;
42194;SDS011;27863;49.440;11.102;2023-09-12T13:51:06;7.80;;;7.07;;
42194;SDS011;27863;49.440;11.102;2023-09-12T13:54:07;9.25;;;6.95;;
42194;SDS011;27863;49.440;11.102;2023-09-12T13:57:15;8.30;;;7.07;;
42194;SDS011;27863;49.440;11.102;2023-09-12T14:00:17;7.70;;;6.97;;
42194;SDS011;27863;49.440;11.102;2023-09-12T14:03:17;8.55;;;7.70;;
42194;SDS011;27863;49.440;11.102;2023-09-12T14:06:18;41.53;;;9.85;;
42194;SDS011;27863;49.440;11.102;2023-09-12T14:09:19;7.15;;;6.45;;
42194;SDS011;27863;49.440;11.102;2023-09-12T14:12:20;7.25;;;6.55;;
42194;SDS011;27863;49.440;11.102;2023-09-12T14:15:20;6.93;;;6.22;;
42194;SDS011;27863;49.440;11.102;2023-09-12T14:18:21;6.90;;;6.35;;
42194;SDS011;27863;49.440;11.102;2023-09-12T14:21:22;7.50;;;6.35;;
42194;SDS011;27863;49.440;11.102;2023-09-12T14:24:23;8.93;;;7.40;;
42194;SDS011;27863;49.440;11.102;2023-09-12T14:27:25;11.30;;;7.57;;
42194;SDS011;27863;49.440;11.102;2023-09-12T14:30:25;7.43;;;6.72;;
42194;SDS011;27863;49.440;11.102;2023-09-12T14:33:34;7.65;;;7.10;;
42194;SDS011;27863;49.440;11.102;2023-09-12T14:36:34;8.07;;;7.28;;
42194;SDS011;27863;49.440;11.102;2023-09-12T14:39:35;7.22;;;6.68;;
42194;SDS011;27863;49.440;11.102;2023-09-12T14:42:35;7.32;;;6.78;;
42194;SDS011;27863;49.440;11.102;2023-09-12T14:45:36;9.82;;;7.15;;
42194;SDS011;27863;49.440;11.102;2023-09-12T14:48:36;7.97;;;7.25;;
42194;SDS011;27863;49.440;11.102;2023-09-12T14:51:38;7.88;;;7.18;;
42194;SDS011;27863;49.440;11.102;2023-09-12T14:54:38;8.10;;;7.32;;
42194;SDS011;27863;49.440;11.102;2023-09-12T14:57:39;7.20;;;6.53;;
42194;SDS011;27863;49.440;11.102;2023-09-12T15:00:39;7.47;;;6.85;;
42194;SDS011;27863;49.440;11.102;2023-09-12T15:03:40;9.50;;;6.57;;
42194;SDS011;27863;49.440;11.102;2023-09-12T15:06:41;7.55;;;6.97;;
42194;SDS011;27863;49.440;11.102;2023-09-12T15:09:42;7.63;;;7.00;;
42194;SDS011;27863;49.440;11.102;2023-09-12T15:12:42;7.05;;;6.45;;
42194;SDS011;27863;49.440;11.102;2023-09-12T15:15:43;7.72;;;6.82;;
42194;SDS011;27863;49.440;11.102;2023-09-12T15:18:43;7.15;;;6.45;;
42194;SDS011;27863;49.440;11.102;2023-09-12T15:21:44;8.95;;;8.25;;
42194;SDS011;27863;49.440;11.102;2023-09-12T15:24:46;7.70;;;6.78;;
42194;SDS011;27863;49.440;11.102;2023-09-12T15:27:47;7.65;;;7.00;;
42194;SDS011;27863;49.440;11.102;2023-09-12T15:30:47;7.90;;;7.15;;
42194;SDS011;27863;49.440;11.102;2023-09-12T15:33:48;7.88;;;7.10;;
42194;SDS011;27863;49.440;11.102;2023-09-12T15:36:49;15.55;;;6.82;;
42194;SDS011;27863;49.440;11.102;2023-09-12T15:39:50;8.13;;;7.45;;
42194;SDS011;27863;49.440;11.102;2023-09-12T15:42:50;7.50;;;6.80;;
42194;SDS011;27863;49.440;11.102;2023-09-12T15:45:51;6.63;;;6.05;;
42194;SDS011;27863;49.440;11.102;2023-09-12T15:48:51;7.05;;;6.50;;
42194;SDS011;27863;49.440;11.102;2023-09-12T15:51:52;7.75;;;7.25;;
42194;SDS011;27863;49.440;11.102;2023-09-12T15:54:53;7.57;;;6.93;;
42194;SDS011;27863;49.440;11.102;2023-09-12T15:57:54;7.50;;;6.90;;
42194;SDS011;27863;49.440;11.102;2023-09-12T16:00:54;7.38;;;6.78;;
42194;SDS011;27863;49.440;11.102;2023-09-12T16:03:57;6.95;;;6.45;;
42194;SDS011;27863;49.440;11.102;2023-09-12T16:06:58;8.88;;;6.55;;
42194;SDS011;27863;49.440;11.102;2023-09-12T16:09:58;8.73;;;6.97;;
42194;SDS011;27863;49.440;11.102;2023-09-12T16:13:00;8.70;;;8.00;;
42194;SDS011;27863;49.440;11.102;2023-09-12T16:16:01;9.75;;;8.02;;
42194;SDS011;27863;49.440;11.102;2023-09-12T16:19:02;7.32;;;6.65;;
42194;SDS011;27863;49.440;11.102;2023-09-12T16:22:06;8.40;;;7.60;;
42194;SDS011;27863;49.440;11.102;2023-09-12T16:25:08;6.95;;;6.45;;
42194;SDS011;27863;49.440;11.102;2023-09-12T16:28:09;9.15;;;7.05;;
42194;SDS011;27863;49.440;11.102;2023-09-12T16:31:10;7.80;;;7.20;;
42194;SDS011;27863;49.440;11.102;2023-09-12T16:34:11;7.97;;;7.38;;
42194;SDS011;27863;49.440;11.102;2023-09-12T16:37:13;7.70;;;6.97;;
42194;SDS011;27863;49.440;11.102;2023-09-12T16:40:13;8.18;;;7.43;;
42194;SDS011;27863;49.440;11.102;2023-09-12T16:43:15;7.72;;;7.07;;
42194;SDS011;27863;49.440;11.102;2023-09-12T16:46:16;8.57;;;7.97;;
42194;SDS011;27863;49.440;11.102;2023-09-12T16:49:16;7.93;;;7.32;;
42194;SDS011;27863;49.440;11.102;2023-09-12T16:52:17;9.30;;;7.30;;
42194;SDS011;27863;49.440;11.102;2023-09-12T16:55:18;8.70;;;8.00;;
42194;SDS011;27863;49.440;11.102;2023-09-12T16:58:19;7.75;;;7.25;;
42194;SDS011;27863;49.440;11.102;2023-09-12T17:01:19;8.07;;;7.38;;
42194;SDS011;27863;49.440;11.102;2023-09-12T17:04:20;9.98;;;8.30;;
42194;SDS011;27863;49.440;11.102;2023-09-12T17:07:20;8.13;;;7.20;;
42194;SDS011;27863;49.440;11.102;2023-09-12T17:10:22;9.75;;;8.82;;
42194;SDS011;27863;49.440;11.102;2023-09-12T17:13:22;7.55;;;6.95;;
42194;SDS011;27863;49.440;11.102;2023-09-12T17:16:23;8.63;;;7.82;;
42194;SDS011;27863;49.440;11.102;2023-09-12T17:19:24;9.68;;;8.77;;
42194;SDS011;27863;49.440;11.102;2023-09-12T17:22:24;9.48;;;8.10;;
42194;SDS011;27863;49.440;11.102;2023-09-12T17:25:27;10.90;;;7.60;;
42194;SDS011;27863;49.440;11.102;2023-09-12T17:28:27;11.55;;;8.50;;
42194;SDS011;27863;49.440;11.102;2023-09-12T17:31:28;11.95;;;10.93;;
42194;SDS011;27863;49.440;11.102;2023-09-12T17:34:43;9.73;;;8.85;;
42194;SDS011;27863;49.440;11.102;2023-09-12T17:37:44;8.80;;;8.10;;
42194;SDS011;27863;49.440;11.102;2023-09-12T17:40:45;9.27;;;8.38;;
42194;SDS011;27863;49.440;11.102;2023-09-12T17:43:45;9.80;;;9.00;;
42194;SDS011;27863;49.440;11.102;2023-09-12T17:46:46;10.00;;;9.07;;
42194;SDS011;27863;49.440;11.102;2023-09-12T17:49:46;9.90;;;8.07;;